Time;durP1;ratioP1;P1;durP2;ratioP2;P2;SDS_P1;SDS_P2;PMS_P1;PMS_P2;Temp;Humidity;BMP_temperature;BMP_pressure;BME280_temperature;BME280_humidity;BME280_pressure;Samples;Min_cycle;Max_cycle;Signal;HPM_P1;HPM_P2
2021/04/12 00:01:01;;;;;;;;;;;4.10;68.80;;;;;;4971364;28;20009;-85
2021/04/12 00:03:32;;;;;;;;;;;4.00;68.80;;;;;;4984693;28;19914;-83
2021/04/12 00:06:01;;;;;;;;;;;4.00;68.90;;;;;;4976996;28;19914;-84
2021/04/12 00:08:29;;;;;;;;;;;4.00;68.90;;;;;;4975925;28;19953;-85
2021/04/12 00:11:17;;;;;;;;;;;4.00;69.00;;;;;;4978852;28;19906;-85
2021/04/12 00:14:05;;;;;;;;;;;4.00;69.20;;;;;;4974445;28;19918;-84
2021/04/12 00:16:37;;;;;;;;;;;3.90;69.10;;;;;;4974511;28;20331;-85
2021/04/12 00:19:09;;;;;;;;;;;3.90;69.20;;;;;;4970646;28;20289;-84
2021/04/12 00:21:40;;;;;;;;;;;3.90;69.20;;;;;;4985489;28;19906;-86
2021/04/12 00:24:13;;;;;;;;;;;3.90;69.30;;;;;;4970860;28;19910;-85
2021/04/12 00:26:41;;;;;;;;;;;3.90;69.30;;;;;;4973472;28;20521;-84
2021/04/12 00:29:09;;;;;;;;;;;3.90;69.40;;;;;;4968217;28;19910;-85
2021/04/12 00:31:37;;;;;;;;;;;3.90;69.30;;;;;;4977894;28;20369;-85
2021/04/12 00:34:03;;;;;;;;;;;3.90;69.40;;;;;;4976171;28;19910;-84
2021/04/12 00:36:36;;;;;;;;;;;3.90;69.50;;;;;;4985541;28;20424;-85
2021/04/12 00:39:02;;;;;;;;;;;3.90;69.60;;;;;;4965502;28;19914;-85
2021/04/12 00:41:44;;;;;;;;;;;3.80;69.60;;;;;;4972256;28;19913;-85
2021/04/12 00:44:28;;;;;;;;;;;3.90;69.70;;;;;;4983432;28;20368;-85
2021/04/12 00:47:02;;;;;;;;;;;3.90;69.70;;;;;;4971956;28;20273;-85
2021/04/12 00:49:36;;;;;;;;;;;3.90;69.70;;;;;;4985028;28;20022;-83
2021/04/12 00:52:20;;;;;;;;;;;3.90;69.80;;;;;;4977655;28;20500;-83
2021/04/12 00:54:46;;;;;;;;;;;3.90;69.80;;;;;;4972162;28;19914;-84
2021/04/12 00:57:20;;;;;;;;;;;3.90;69.80;;;;;;4971983;28;19914;-84
2021/04/12 00:59:52;;;;;;;;;;;3.90;69.90;;;;;;4972052;28;19918;-84
2021/04/12 01:02:18;;;;;;;;;;;3.90;70.00;;;;;;4976232;28;19968;-85
2021/04/12 01:05:02;;;;;;;;;;;3.80;70.00;;;;;;4971243;28;19914;-84
2021/04/12 01:07:48;;;;;;;;;;;3.90;70.10;;;;;;4973144;28;19906;-84
2021/04/12 01:10:24;;;;;;;;;;;3.90;70.10;;;;;;4986760;28;20258;-84
2021/04/12 01:12:49;;;;;;;;;;;3.90;70.10;;;;;;4971975;28;19906;-84
2021/04/12 01:15:33;;;;;;;;;;;3.90;70.20;;;;;;4984725;28;20395;-84
2021/04/12 01:18:17;;;;;;;;;;;3.90;70.10;;;;;;4984223;28;19914;-83
2021/04/12 01:20:50;;;;;;;;;;;3.90;70.20;;;;;;4970559;28;20480;-83
2021/04/12 01:23:37;;;;;;;;;;;3.90;70.20;;;;;;4977724;28;20334;-85
2021/04/12 01:26:02;;;;;;;;;;;3.90;70.30;;;;;;4969785;28;19914;-84
2021/04/12 01:28:46;;;;;;;;;;;3.80;70.30;;;;;;4976783;28;19910;-86
2021/04/12 01:31:30;;;;;;;;;;;3.80;70.40;;;;;;4966119;28;19933;-85
2021/04/12 01:34:08;;;;;;;;;;;3.80;70.60;;;;;;4979807;28;19906;-85
2021/04/12 01:36:48;;;;;;;;;;;3.80;70.60;;;;;;4981759;28;19910;-85
2021/04/12 01:39:28;;;;;;;;;;;3.80;70.60;;;;;;4968225;28;19964;-85
2021/04/12 01:42:02;;;;;;;;;;;3.80;70.60;;;;;;4960603;28;20373;-84
2021/04/12 01:44:39;;;;;;;;;;;3.80;70.70;;;;;;4970483;28;19914;-85
2021/04/12 01:47:14;;;;;;;;;;;3.80;70.60;;;;;;4982932;28;19906;-85
2021/04/12 01:49:44;;;;;;;;;;;3.80;70.70;;;;;;4959178;28;19917;-85
2021/04/12 01:52:29;;;;;;;;;;;3.90;70.70;;;;;;4978975;28;19917;-85
2021/04/12 01:55:13;;;;;;;;;;;3.80;70.60;;;;;;4968896;28;19911;-85
2021/04/12 01:57:57;;;;;;;;;;;3.80;70.80;;;;;;4979584;28;19905;-85
2021/04/12 02:00:38;;;;;;;;;;;3.80;70.80;;;;;;4986108;28;19917;-86
2021/04/12 02:03:22;;;;;;;;;;;3.80;70.80;;;;;;4974466;28;20377;-84
2021/04/12 02:05:50;;;;;;;;;;;3.70;70.90;;;;;;4955691;28;19910;-84
2021/04/12 02:08:19;;;;;;;;;;;3.70;71.00;;;;;;4970294;28;19954;-84
2021/04/12 02:10:56;;;;;;;;;;;3.70;71.10;;;;;;4985109;28;20298;-85
2021/04/12 02:13:41;;;;;;;;;;;3.70;71.10;;;;;;4975008;28;19985;-85
2021/04/12 02:16:16;;;;;;;;;;;3.60;71.00;;;;;;4981443;28;19910;-85
2021/04/12 02:18:57;;;;;;;;;;;3.60;71.20;;;;;;4980674;28;20332;-84
2021/04/12 02:21:49;;;;;;;;;;;3.70;71.20;;;;;;4990864;28;19967;-84
2021/04/12 02:24:27;;;;;;;;;;;3.60;71.20;;;;;;4971653;28;20268;-84
2021/04/12 02:26:56;;;;;;;;;;;3.60;71.30;;;;;;4981304;28;19964;-84
2021/04/12 02:29:21;;;;;;;;;;;3.60;71.50;;;;;;4972343;28;19909;-84
2021/04/12 02:32:05;;;;;;;;;;;3.60;71.50;;;;;;4974739;28;20427;-84
2021/04/12 02:34:49;;;;;;;;;;;3.60;71.60;;;;;;4980826;28;19917;-84
2021/04/12 02:37:24;;;;;;;;;;;3.60;71.60;;;;;;4972717;28;19910;-83
2021/04/12 02:39:50;;;;;;;;;;;3.50;71.60;;;;;;4986583;28;19917;-84
2021/04/12 02:42:34;;;;;;;;;;;3.50;71.60;;;;;;4989031;28;19929;-85
2021/04/12 02:45:03;;;;;;;;;;;3.50;71.70;;;;;;4981149;28;20288;-85
2021/04/12 02:47:36;;;;;;;;;;;3.50;71.70;;;;;;4992996;28;20222;-84
2021/04/12 02:50:20;;;;;;;;;;;3.50;71.80;;;;;;4973306;28;20369;-85
2021/04/12 02:52:57;;;;;;;;;;;3.50;71.90;;;;;;4975389;28;20135;-85
2021/04/12 02:55:41;;;;;;;;;;;3.50;71.90;;;;;;4982877;28;19952;-85
2021/04/12 02:58:12;;;;;;;;;;;3.50;72.10;;;;;;4977578;28;19957;-84
2021/04/12 03:00:37;;;;;;;;;;;3.50;72.00;;;;;;4973992;28;19914;-85
2021/04/12 03:03:12;;;;;;;;;;;3.50;72.10;;;;;;4977798;28;19917;-86
2021/04/12 03:05:47;;;;;;;;;;;3.50;72.00;;;;;;4957991;28;19906;-85
2021/04/12 03:08:24;;;;;;;;;;;3.50;72.00;;;;;;4976243;28;20000;-85
2021/04/12 03:10:58;;;;;;;;;;;3.50;72.00;;;;;;4983437;28;20300;-85
2021/04/12 03:13:38;;;;;;;;;;;3.50;72.00;;;;;;4987878;28;19916;-85
2021/04/12 03:16:07;;;;;;;;;;;3.50;72.00;;;;;;4971542;28;19910;-86
2021/04/12 03:18:35;;;;;;;;;;;3.50;72.20;;;;;;4975163;28;20505;-85
2021/04/12 03:21:15;;;;;;;;;;;3.50;72.20;;;;;;4984040;28;20517;-85
2021/04/12 03:23:59;;;;;;;;;;;3.50;72.40;;;;;;4976721;28;19909;-84
2021/04/12 03:26:25;;;;;;;;;;;3.50;72.40;;;;;;4972986;28;19937;-83
2021/04/12 03:29:09;;;;;;;;;;;3.60;72.50;;;;;;4973173;28;19957;-84
2021/04/12 03:31:35;;;;;;;;;;;3.50;72.40;;;;;;4972997;28;19914;-84
2021/04/12 03:34:16;;;;;;;;;;;3.50;72.50;;;;;;4982081;28;19960;-84
2021/04/12 03:36:47;;;;;;;;;;;3.50;72.50;;;;;;4975981;28;19984;-83
2021/04/12 03:39:15;;;;;;;;;;;3.50;72.50;;;;;;4972816;28;19926;-84
2021/04/12 03:41:47;;;;;;;;;;;3.50;72.60;;;;;;4972871;28;20353;-83
2021/04/12 03:44:25;;;;;;;;;;;3.50;72.50;;;;;;4977039;28;19917;-84
2021/04/12 03:46:51;;;;;;;;;;;3.50;72.60;;;;;;4972467;28;19906;-85
2021/04/12 03:49:35;;;;;;;;;;;3.50;72.70;;;;;;4983860;28;19968;-85
2021/04/12 03:52:06;;;;;;;;;;;3.50;72.70;;;;;;4977339;28;19948;-86
2021/04/12 03:54:50;;;;;;;;;;;3.50;72.70;;;;;;4984464;28;20412;-86
2021/04/12 03:57:44;;;;;;;;;;;3.50;72.70;;;;;;4973476;28;20380;-85
2021/04/12 04:00:10;;;;;;;;;;;3.50;72.80;;;;;;4979506;28;19922;-85
2021/04/12 04:02:54;;;;;;;;;;;3.50;72.80;;;;;;4972540;28;19914;-86
2021/04/12 04:05:32;;;;;;;;;;;3.50;72.90;;;;;;4973512;28;20000;-86
2021/04/12 04:08:00;;;;;;;;;;;3.50;72.90;;;;;;4972624;28;20293;-85
2021/04/12 04:10:44;;;;;;;;;;;3.50;72.80;;;;;;4982233;28;19925;-86
2021/04/12 04:13:31;;;;;;;;;;;3.50;72.80;;;;;;4978842;28;19910;-84
2021/04/12 04:15:57;;;;;;;;;;;3.50;72.80;;;;;;4964624;28;20001;-85
2021/04/12 04:18:32;;;;;;;;;;;3.50;73.00;;;;;;4975139;28;20316;-84
2021/04/12 04:21:09;;;;;;;;;;;3.50;73.00;;;;;;4980579;28;20388;-84
2021/04/12 04:23:49;;;;;;;;;;;3.50;73.00;;;;;;4989553;28;19910;-84
2021/04/12 04:26:24;;;;;;;;;;;3.50;73.00;;;;;;4985335;28;19925;-86
2021/04/12 04:29:08;;;;;;;;;;;3.50;73.00;;;;;;4976790;28;19910;-86
2021/04/12 04:31:52;;;;;;;;;;;3.50;73.00;;;;;;4980892;28;19910;-87
2021/04/12 04:34:24;;;;;;;;;;;3.60;72.90;;;;;;4959963;28;19914;-85
2021/04/12 04:37:18;;;;;;;;;;;3.50;72.90;;;;;;4977135;28;20139;-86
2021/04/12 04:40:05;;;;;;;;;;;3.60;73.00;;;;;;4968667;28;19925;-85
2021/04/12 04:42:49;;;;;;;;;;;3.50;72.90;;;;;;4971136;28;19917;-86
2021/04/12 04:45:15;;;;;;;;;;;3.50;73.10;;;;;;4964351;28;19917;-85
2021/04/12 04:47:57;;;;;;;;;;;3.50;73.10;;;;;;4969129;28;20462;-86
2021/04/12 04:50:41;;;;;;;;;;;3.50;73.10;;;;;;4970473;28;19917;-85
2021/04/12 04:53:45;;;;;;;;;;;3.50;73.00;;;;;;4972941;28;19922;-84
2021/04/12 04:56:25;;;;;;;;;;;3.50;73.10;;;;;;4956598;28;19910;-85
2021/04/12 04:59:09;;;;;;;;;;;3.50;73.10;;;;;;4943119;28;20273;-86
2021/04/12 05:01:41;;;;;;;;;;;3.50;73.30;;;;;;4966892;28;20001;-86
2021/04/12 05:04:41;;;;;;;;;;;3.50;73.30;;;;;;4965339;28;19941;-86
2021/04/12 05:07:13;;;;;;;;;;;3.50;73.20;;;;;;4932808;28;20047;-86
2021/04/12 05:10:04;;;;;;;;;;;3.60;73.20;;;;;;4962664;28;19914;-86
2021/04/12 05:12:36;;;;;;;;;;;3.60;73.20;;;;;;4978528;28;20368;-86
2021/04/12 05:15:13;;;;;;;;;;;3.60;73.20;;;;;;4959456;28;19960;-86
2021/04/12 05:17:58;;;;;;;;;;;3.70;73.10;;;;;;4963265;28;19906;-87
2021/04/12 05:20:23;;;;;;;;;;;3.70;73.10;;;;;;4969784;28;19930;-87
2021/04/12 05:23:01;;;;;;;;;;;3.80;73.00;;;;;;4966904;28;19956;-86
2021/04/12 05:25:29;;;;;;;;;;;3.80;73.10;;;;;;4966761;28;20474;-86
2021/04/12 05:28:03;;;;;;;;;;;3.80;73.00;;;;;;4966503;28;19910;-85
2021/04/12 05:30:49;;;;;;;;;;;3.90;73.10;;;;;;4969151;28;19918;-86
2021/04/12 05:33:34;;;;;;;;;;;5.00;73.10;;;;;;4958828;28;20360;-87
2021/04/12 05:36:11;;;;;;;;;;;6.40;70.30;;;;;;4963102;28;19985;-86
2021/04/12 05:38:36;;;;;;;;;;;7.70;66.90;;;;;;4968733;28;20349;-87
2021/04/12 05:41:04;;;;;;;;;;;8.90;64.10;;;;;;4966236;28;19919;-84
2021/04/12 05:43:30;;;;;;;;;;;9.80;62.00;;;;;;4968774;28;19922;-86
2021/04/12 05:46:04;;;;;;;;;;;10.00;60.50;;;;;;4974156;28;19919;-87
2021/04/12 05:48:42;;;;;;;;;;;9.70;60.60;;;;;;4975839;28;19914;-87
2021/04/12 05:51:17;;;;;;;;;;;9.60;60.90;;;;;;4975554;28;19916;-88
2021/04/12 05:54:00;;;;;;;;;;;9.50;61.00;;;;;;4971817;28;19914;-85
2021/04/12 05:56:26;;;;;;;;;;;9.30;61.20;;;;;;4957239;28;20285;-86
2021/04/12 05:58:58;;;;;;;;;;;9.30;61.70;;;;;;4968882;28;19910;-87
2021/04/12 06:01:23;;;;;;;;;;;9.60;61.70;;;;;;4969316;28;20365;-86
2021/04/12 06:04:07;;;;;;;;;;;10.70;60.60;;;;;;4960658;28;19967;-87
2021/04/12 06:06:50;;;;;;;;;;;11.80;58.40;;;;;;4971875;28;19997;-86
2021/04/12 06:09:48;;;;;;;;;;;13.10;55.90;;;;;;4971345;28;19953;-88
2021/04/12 06:12:24;;;;;;;;;;;13.90;53.90;;;;;;4960876;28;19953;-88
2021/04/12 06:14:58;;;;;;;;;;;14.60;52.40;;;;;;4965031;28;20365;-88
2021/04/12 06:17:33;;;;;;;;;;;15.30;51.50;;;;;;4961971;28;19918;-89
2021/04/12 06:20:04;;;;;;;;;;;15.90;49.70;;;;;;4974586;28;20304;-89
2021/04/12 06:22:36;;;;;;;;;;;16.40;49.00;;;;;;4980872;28;19910;-89
2021/04/12 06:25:11;;;;;;;;;;;17.00;47.90;;;;;;4979549;28;19964;-88
2021/04/12 06:27:56;;;;;;;;;;;17.40;46.90;;;;;;4984494;28;19924;-88
2021/04/12 06:30:28;;;;;;;;;;;17.90;46.70;;;;;;4973875;28;19910;-86
2021/04/12 06:33:02;;;;;;;;;;;18.40;45.30;;;;;;4973987;28;19910;-88
2021/04/12 06:35:33;;;;;;;;;;;18.50;44.80;;;;;;4970264;28;19906;-88
2021/04/12 06:38:11;;;;;;;;;;;18.90;44.10;;;;;;4967841;28;19914;-88
2021/04/12 06:40:48;;;;;;;;;;;18.80;42.90;;;;;;4982574;28;19917;-88
2021/04/12 06:43:30;;;;;;;;;;;18.80;42.60;;;;;;4985490;28;19999;-87
2021/04/12 06:45:58;;;;;;;;;;;18.80;43.10;;;;;;4976825;28;19909;-88
2021/04/12 06:48:30;;;;;;;;;;;16.60;44.30;;;;;;4973168;28;19906;-87
2021/04/12 06:51:21;;;;;;;;;;;16.20;46.10;;;;;;4973534;28;19937;-86
2021/04/12 06:54:05;;;;;;;;;;;16.80;45.80;;;;;;4961728;28;19910;-88
2021/04/12 06:56:49;;;;;;;;;;;17.30;44.30;;;;;;4963600;28;19906;-89
2021/04/12 06:59:17;;;;;;;;;;;17.40;43.80;;;;;;4970461;28;20399;-89
2021/04/12 07:02:02;;;;;;;;;;;18.10;42.90;;;;;;4972389;28;20002;-89
2021/04/12 07:04:46;;;;;;;;;;;18.60;41.30;;;;;;4966235;28;20286;-89
2021/04/12 07:07:41;;;;;;;;;;;18.80;41.40;;;;;;4980164;28;20338;-91
2021/04/12 07:10:25;;;;;;;;;;;19.20;40.60;;;;;;4987211;28;19941;-92
2021/04/12 07:13:16;;;;;;;;;;;19.40;40.00;;;;;;4971495;28;19918;-91
2021/04/12 07:16:11;;;;;;;;;;;19.50;40.10;;;;;;4977828;28;20014;-91
2021/04/12 07:18:45;;;;;;;;;;;20.00;39.30;;;;;;4957348;28;19914;-88
2021/04/12 07:21:16;;;;;;;;;;;20.40;38.70;;;;;;4973647;28;19929;-86
2021/04/12 07:23:45;;;;;;;;;;;20.40;37.80;;;;;;4964195;28;19918;-87
2021/04/12 07:26:25;;;;;;;;;;;20.60;38.40;;;;;;4965962;28;20468;-85
2021/04/12 07:28:53;;;;;;;;;;;20.80;38.10;;;;;;4957168;28;19921;-85
2021/04/12 07:31:38;;;;;;;;;;;21.00;37.80;;;;;;4961719;28;19977;-85
2021/04/12 07:34:29;;;;;;;;;;;21.10;37.20;;;;;;4965574;28;19933;-86
2021/04/12 07:37:13;;;;;;;;;;;21.30;36.40;;;;;;4965428;28;20516;-85
2021/04/12 07:39:38;;;;;;;;;;;21.10;36.40;;;;;;4972409;28;19961;-83
2021/04/12 07:42:19;;;;;;;;;;;21.50;36.20;;;;;;4960974;28;19910;-82
2021/04/12 07:45:03;;;;;;;;;;;21.50;35.80;;;;;;4961868;28;19953;-83
2021/04/12 07:47:50;;;;;;;;;;;21.10;35.40;;;;;;4968031;28;20636;-83
2021/04/12 07:50:34;;;;;;;;;;;21.20;36.10;;;;;;4959520;28;19917;-85
2021/04/12 07:53:05;;;;;;;;;;;21.40;35.60;;;;;;4970894;28;19993;-85
2021/04/12 07:55:49;;;;;;;;;;;21.50;35.50;;;;;;4967066;28;19914;-84
2021/04/12 07:58:14;;;;;;;;;;;21.50;35.00;;;;;;4968536;28;19919;-84
2021/04/12 08:00:57;;;;;;;;;;;21.30;34.30;;;;;;4969076;28;19925;-85
2021/04/12 08:03:42;;;;;;;;;;;20.60;33.90;;;;;;4983918;28;19922;-85
2021/04/12 08:06:26;;;;;;;;;;;20.30;34.90;;;;;;4975762;28;20012;-85
2021/04/12 08:08:51;;;;;;;;;;;20.40;34.90;;;;;;4979465;28;19918;-86
2021/04/12 08:11:38;;;;;;;;;;;17.90;37.20;;;;;;4978322;28;19921;-85
2021/04/12 08:14:21;;;;;;;;;;;15.90;41.10;;;;;;4989071;28;20361;-87
2021/04/12 08:17:07;;;;;;;;;;;15.00;41.40;;;;;;4976463;28;19917;-86
2021/04/12 08:19:39;;;;;;;;;;;13.30;44.20;;;;;;4988417;28;19980;-86
2021/04/12 08:22:16;;;;;;;;;;;12.20;47.10;;;;;;4979324;28;19914;-85
2021/04/12 08:24:44;;;;;;;;;;;13.40;46.90;;;;;;4972599;28;19914;-86
2021/04/12 08:27:22;;;;;;;;;;;13.30;46.00;;;;;;4974176;28;20381;-85
2021/04/12 08:29:53;;;;;;;;;;;15.00;43.40;;;;;;4966773;28;19910;-86
2021/04/12 08:32:39;;;;;;;;;;;16.20;40.90;;;;;;4991040;28;19910;-85
2021/04/12 08:35:14;;;;;;;;;;;15.70;40.50;;;;;;4988223;28;20396;-85
2021/04/12 08:37:48;;;;;;;;;;;14.80;42.40;;;;;;4978087;28;19913;-85
2021/04/12 08:40:33;;;;;;;;;;;13.90;43.40;;;;;;4977513;28;20020;-86
2021/04/12 08:43:01;;;;;;;;;;;12.50;45.70;;;;;;4971841;28;19917;-84
2021/04/12 08:45:26;;;;;;;;;;;11.50;48.10;;;;;;4970735;28;19910;-85
2021/04/12 08:48:12;;;;;;;;;;;11.20;49.80;;;;;;4970790;28;19929;-86
2021/04/12 08:50:51;;;;;;;;;;;11.40;49.80;;;;;;4967209;28;19914;-85
2021/04/12 08:53:23;;;;;;;;;;;10.90;50.30;;;;;;4967866;28;20030;-86
2021/04/12 08:56:08;;;;;;;;;;;10.40;50.70;;;;;;4968673;28;20375;-85
2021/04/12 08:58:53;;;;;;;;;;;9.90;51.30;;;;;;4966195;28;20005;-87
2021/04/12 09:01:18;;;;;;;;;;;9.60;52.10;;;;;;4973339;28;20001;-86
2021/04/12 09:03:54;;;;;;;;;;;9.40;52.40;;;;;;4970190;28;20012;-86
2021/04/12 09:06:38;;;;;;;;;;;9.50;52.30;;;;;;4985650;28;19916;-88
2021/04/12 09:09:17;;;;;;;;;;;9.40;52.40;;;;;;4972015;28;19922;-89
2021/04/12 09:12:07;;;;;;;;;;;9.70;52.00;;;;;;4962944;28;20022;-87
2021/04/12 09:14:51;;;;;;;;;;;9.80;51.50;;;;;;4968077;28;19914;-88
2021/04/12 09:17:16;;;;;;;;;;;9.60;51.30;;;;;;4969393;28;20428;-87
2021/04/12 09:20:01;;;;;;;;;;;9.60;51.70;;;;;;4973623;28;19910;-88
2021/04/12 09:22:48;;;;;;;;;;;9.60;51.70;;;;;;4970935;28;19910;-89
2021/04/12 09:25:22;;;;;;;;;;;9.60;52.00;;;;;;4960329;28;19906;-87
2021/04/12 09:28:12;;;;;;;;;;;9.50;52.00;;;;;;4970155;28;19993;-89
2021/04/12 09:30:56;;;;;;;;;;;9.40;52.00;;;;;;4968408;28;19961;-89
2021/04/12 09:33:39;;;;;;;;;;;9.60;52.30;;;;;;4984830;28;19953;-89
2021/04/12 09:36:17;;;;;;;;;;;9.70;52.10;;;;;;4976749;28;19906;-89
2021/04/12 09:39:01;;;;;;;;;;;9.60;51.80;;;;;;4970482;28;20013;-88
2021/04/12 09:41:33;;;;;;;;;;;9.50;52.00;;;;;;4977422;28;19926;-89
2021/04/12 09:44:07;;;;;;;;;;;9.40;52.10;;;;;;4965332;28;19918;-90
2021/04/12 09:46:39;;;;;;;;;;;9.20;52.30;;;;;;4983459;28;19914;-88
2021/04/12 09:49:07;;;;;;;;;;;9.10;52.90;;;;;;4969838;28;19934;-89
2021/04/12 09:51:56;;;;;;;;;;;9.00;53.10;;;;;;4968569;28;20005;-88
2021/04/12 09:54:27;;;;;;;;;;;9.00;53.30;;;;;;4961331;28;20281;-88
2021/04/12 09:57:02;;;;;;;;;;;9.10;53.40;;;;;;4972345;28;20241;-89
2021/04/12 09:59:46;;;;;;;;;;;9.30;53.50;;;;;;4967121;28;19957;-87
2021/04/12 10:02:30;;;;;;;;;;;9.30;54.00;;;;;;4962898;28;19949;-86
2021/04/12 10:05:06;;;;;;;;;;;9.60;54.50;;;;;;4974583;28;19910;-89
2021/04/12 10:07:47;;;;;;;;;;;9.50;53.80;;;;;;4965034;28;20361;-89
2021/04/12 10:10:12;;;;;;;;;;;9.60;54.10;;;;;;4973065;28;19917;-90
2021/04/12 10:12:58;;;;;;;;;;;9.50;54.20;;;;;;4964687;28;19914;-87
2021/04/12 10:15:29;;;;;;;;;;;9.30;54.20;;;;;;4953281;28;19917;-87
2021/04/12 10:18:05;;;;;;;;;;;9.30;54.40;;;;;;4966604;28;20357;-87
2021/04/12 10:20:34;;;;;;;;;;;9.30;54.50;;;;;;4968287;28;20364;-88
2021/04/12 10:23:01;;;;;;;;;;;9.30;54.40;;;;;;4961268;28;19925;-88
2021/04/12 10:25:35;;;;;;;;;;;9.20;54.70;;;;;;4979213;28;19910;-86
2021/04/12 10:28:11;;;;;;;;;;;9.20;55.00;;;;;;4973502;28;19910;-87
2021/04/12 10:30:48;;;;;;;;;;;9.40;54.80;;;;;;4976136;28;20009;-89
2021/04/12 10:33:20;;;;;;;;;;;9.40;54.80;;;;;;4967939;28;19921;-87
2021/04/12 10:35:50;;;;;;;;;;;9.40;54.70;;;;;;4965286;28;20002;-89
2021/04/12 10:38:17;;;;;;;;;;;9.40;54.90;;;;;;4981513;28;19910;-89
2021/04/12 10:41:01;;;;;;;;;;;9.20;55.10;;;;;;4975276;28;20372;-90
2021/04/12 10:43:47;;;;;;;;;;;9.00;55.40;;;;;;4972790;28;19910;-88
2021/04/12 10:46:16;;;;;;;;;;;9.00;56.00;;;;;;4963874;28;20410;-86
2021/04/12 10:48:47;;;;;;;;;;;9.00;56.10;;;;;;4981929;28;19914;-88
2021/04/12 10:51:32;;;;;;;;;;;9.00;56.10;;;;;;4972040;28;19956;-86
2021/04/12 10:54:17;;;;;;;;;;;9.10;56.20;;;;;;4974205;28;19971;-86
2021/04/12 10:57:05;;;;;;;;;;;9.30;56.20;;;;;;4969778;28;19960;-87
2021/04/12 10:59:50;;;;;;;;;;;9.40;55.60;;;;;;4953853;28;19965;-87
2021/04/12 11:02:15;;;;;;;;;;;9.50;55.20;;;;;;4983448;28;19949;-89
2021/04/12 11:04:50;;;;;;;;;;;9.50;55.20;;;;;;4980662;28;19933;-87
2021/04/12 11:07:24;;;;;;;;;;;9.40;55.10;;;;;;4967576;28;19910;-87
2021/04/12 11:09:50;;;;;;;;;;;9.50;55.40;;;;;;4977973;28;20084;-87
2021/04/12 11:12:35;;;;;;;;;;;9.60;55.30;;;;;;4965646;28;20005;-89
2021/04/12 11:15:09;;;;;;;;;;;9.70;55.10;;;;;;4967557;28;19925;-88
2021/04/12 11:17:41;;;;;;;;;;;9.80;54.80;;;;;;4976986;28;20016;-88
2021/04/12 11:20:19;;;;;;;;;;;9.80;54.70;;;;;;4978945;28;20008;-87
2021/04/12 11:22:58;;;;;;;;;;;9.80;54.20;;;;;;4974434;28;19910;-85
2021/04/12 11:25:39;;;;;;;;;;;9.90;54.20;;;;;;4970554;28;19910;-87
2021/04/12 11:28:16;;;;;;;;;;;10.00;53.20;;;;;;4962459;28;20329;-88
2021/04/12 11:30:54;;;;;;;;;;;9.90;53.40;;;;;;4965546;28;19953;-87
2021/04/12 11:33:30;;;;;;;;;;;10.00;52.90;;;;;;4970954;28;19999;-89
2021/04/12 11:36:02;;;;;;;;;;;10.20;52.50;;;;;;4986443;28;19941;-91
2021/04/12 11:38:32;;;;;;;;;;;10.30;52.20;;;;;;4989854;28;19949;-93
2021/04/12 11:41:18;;;;;;;;;;;10.20;51.50;;;;;;4996803;28;19941;-91
2021/04/12 11:43:48;;;;;;;;;;;10.10;51.20;;;;;;4990243;28;19937;-92
2021/04/12 11:46:26;;;;;;;;;;;10.10;51.30;;;;;;4982167;28;20382;-86
2021/04/12 11:48:54;;;;;;;;;;;10.10;51.20;;;;;;4974926;28;19984;-90
2021/04/12 11:51:34;;;;;;;;;;;10.10;51.20;;;;;;4972066;28;19910;-89
2021/04/12 11:54:02;;;;;;;;;;;10.30;51.20;;;;;;4964940;28;20014;-88
2021/04/12 11:56:33;;;;;;;;;;;10.50;51.00;;;;;;4968339;28;19926;-87
2021/04/12 11:59:10;;;;;;;;;;;10.70;50.90;;;;;;4970914;28;19910;-86
2021/04/12 12:01:46;;;;;;;;;;;10.60;50.40;;;;;;4982807;28;19922;-88
2021/04/12 12:04:39;;;;;;;;;;;10.60;50.50;;;;;;4966831;28;19910;-88
2021/04/12 12:07:27;;;;;;;;;;;10.40;50.40;;;;;;4960258;28;19906;-88
2021/04/12 12:10:13;;;;;;;;;;;10.20;50.40;;;;;;4965216;28;20457;-86
2021/04/12 12:12:57;;;;;;;;;;;10.00;50.80;;;;;;4968244;28;19918;-86
2021/04/12 12:15:33;;;;;;;;;;;10.10;51.70;;;;;;4964077;28;19914;-86
2021/04/12 12:18:03;;;;;;;;;;;10.20;51.10;;;;;;4972333;28;19914;-84
2021/04/12 12:20:42;;;;;;;;;;;10.10;50.80;;;;;;4968900;28;20424;-86
2021/04/12 12:23:14;;;;;;;;;;;10.00;51.00;;;;;;4975429;28;20280;-85
2021/04/12 12:25:42;;;;;;;;;;;9.90;51.00;;;;;;4980374;28;20377;-86
2021/04/12 12:28:07;;;;;;;;;;;9.90;51.10;;;;;;4974212;28;19917;-86
2021/04/12 12:30:35;;;;;;;;;;;9.80;51.00;;;;;;4968152;28;19906;-85
2021/04/12 12:33:01;;;;;;;;;;;9.80;51.00;;;;;;4969737;28;19910;-86
2021/04/12 12:35:36;;;;;;;;;;;9.80;50.80;;;;;;4976948;28;19909;-84
2021/04/12 12:38:19;;;;;;;;;;;9.60;51.30;;;;;;4972387;28;20008;-85
2021/04/12 12:40:53;;;;;;;;;;;9.40;52.40;;;;;;4968634;28;19918;-84
2021/04/12 12:43:25;;;;;;;;;;;9.20;53.20;;;;;;4983351;28;19944;-84
2021/04/12 12:45:51;;;;;;;;;;;8.90;54.00;;;;;;4978370;28;20546;-85
2021/04/12 12:48:17;;;;;;;;;;;8.70;54.90;;;;;;4973515;28;20512;-85
2021/04/12 12:51:00;;;;;;;;;;;8.50;55.70;;;;;;4968861;28;19918;-84
2021/04/12 12:53:28;;;;;;;;;;;8.20;56.60;;;;;;4978302;28;19917;-84
2021/04/12 12:55:55;;;;;;;;;;;7.90;57.50;;;;;;4973245;28;20057;-85
2021/04/12 12:58:25;;;;;;;;;;;7.70;58.20;;;;;;4970312;28;19932;-85
2021/04/12 13:00:53;;;;;;;;;;;7.50;58.50;;;;;;4982378;28;19991;-85
2021/04/12 13:03:21;;;;;;;;;;;7.40;59.00;;;;;;4978981;28;20292;-86
2021/04/12 13:05:49;;;;;;;;;;;7.30;59.70;;;;;;4972781;28;19914;-86
2021/04/12 13:08:19;;;;;;;;;;;7.20;60.00;;;;;;4969893;28;20409;-85
2021/04/12 13:10:46;;;;;;;;;;;7.30;60.10;;;;;;4968123;28;19924;-84
2021/04/12 13:13:13;;;;;;;;;;;7.40;60.20;;;;;;4972752;28;19918;-86
2021/04/12 13:15:39;;;;;;;;;;;7.50;60.20;;;;;;4973726;28;19918;-85
2021/04/12 13:18:07;;;;;;;;;;;7.70;60.10;;;;;;4970428;28;19933;-85
2021/04/12 13:20:35;;;;;;;;;;;7.90;60.10;;;;;;4965923;28;19918;-85
2021/04/12 13:23:21;;;;;;;;;;;8.10;60.00;;;;;;4979614;28;20493;-85
2021/04/12 13:25:49;;;;;;;;;;;8.30;59.70;;;;;;4965300;28;20000;-85
2021/04/12 13:28:18;;;;;;;;;;;8.30;59.30;;;;;;4969747;28;20023;-87
2021/04/12 13:31:04;;;;;;;;;;;8.30;59.10;;;;;;4966709;28;20358;-87
2021/04/12 13:33:30;;;;;;;;;;;8.20;59.00;;;;;;4983983;28;20484;-85
2021/04/12 13:36:18;;;;;;;;;;;8.20;59.10;;;;;;4974974;28;20522;-87
2021/04/12 13:38:45;;;;;;;;;;;8.10;59.30;;;;;;4953230;28;19909;-89
2021/04/12 13:41:10;;;;;;;;;;;8.10;59.20;;;;;;4972664;28;20369;-89
2021/04/12 13:43:42;;;;;;;;;;;8.00;59.00;;;;;;4973404;28;20009;-86
2021/04/12 13:46:08;;;;;;;;;;;8.00;59.30;;;;;;4967255;28;20291;-87
2021/04/12 13:48:35;;;;;;;;;;;8.00;59.20;;;;;;4968853;28;20012;-86
2021/04/12 13:51:02;;;;;;;;;;;8.00;59.30;;;;;;4976958;28;20354;-84
2021/04/12 13:53:42;;;;;;;;;;;8.00;59.20;;;;;;4977578;28;19914;-85
2021/04/12 13:56:13;;;;;;;;;;;8.10;59.20;;;;;;4976263;28;19925;-84
2021/04/12 13:58:47;;;;;;;;;;;8.10;59.00;;;;;;4981526;28;19909;-84
2021/04/12 14:01:17;;;;;;;;;;;8.20;58.80;;;;;;4983657;28;19918;-86
2021/04/12 14:03:58;;;;;;;;;;;8.40;58.30;;;;;;4977316;28;19960;-87
2021/04/12 14:06:28;;;;;;;;;;;8.60;57.90;;;;;;4983880;28;19910;-87
2021/04/12 14:08:56;;;;;;;;;;;8.80;57.30;;;;;;4981968;28;19921;-86
2021/04/12 14:11:42;;;;;;;;;;;9.10;56.90;;;;;;4978133;28;19914;-86
2021/04/12 14:14:14;;;;;;;;;;;9.40;56.70;;;;;;4982649;28;20504;-85
2021/04/12 14:16:39;;;;;;;;;;;9.60;56.10;;;;;;4961608;28;20030;-86
2021/04/12 14:19:14;;;;;;;;;;;9.80;55.70;;;;;;4972609;28;19957;-86
2021/04/12 14:21:42;;;;;;;;;;;10.00;55.40;;;;;;4969508;28;19921;-86
2021/04/12 14:24:23;;;;;;;;;;;10.20;54.70;;;;;;4974023;28;19906;-87
2021/04/12 14:26:53;;;;;;;;;;;10.40;54.70;;;;;;4971836;28;19918;-86
2021/04/12 14:29:27;;;;;;;;;;;10.60;53.80;;;;;;4973628;28;19956;-87
2021/04/12 14:32:00;;;;;;;;;;;10.60;53.00;;;;;;4970726;28;20048;-86
2021/04/12 14:34:28;;;;;;;;;;;10.80;53.10;;;;;;4971373;28;20299;-84
2021/04/12 14:37:01;;;;;;;;;;;11.00;52.80;;;;;;4972661;28;19909;-87
2021/04/12 14:39:28;;;;;;;;;;;11.20;52.30;;;;;;4989077;28;20353;-87
2021/04/12 14:41:55;;;;;;;;;;;11.40;51.70;;;;;;4990737;28;19913;-86
2021/04/12 14:44:32;;;;;;;;;;;11.30;51.40;;;;;;4979861;28;19914;-87
2021/04/12 14:46:58;;;;;;;;;;;11.30;51.00;;;;;;4978085;28;19910;-88
2021/04/12 14:49:31;;;;;;;;;;;11.10;49.40;;;;;;4977640;28;19910;-87
2021/04/12 14:52:20;;;;;;;;;;;11.10;49.80;;;;;;4970567;28;19910;-89
2021/04/12 14:54:46;;;;;;;;;;;11.20;49.80;;;;;;4953835;28;19968;-86
2021/04/12 14:57:17;;;;;;;;;;;11.10;49.70;;;;;;4974170;28;19913;-88
2021/04/12 14:59:47;;;;;;;;;;;11.10;49.70;;;;;;4964002;28;19924;-85
2021/04/12 15:02:22;;;;;;;;;;;10.90;49.30;;;;;;4966922;28;20065;-85
2021/04/12 15:04:54;;;;;;;;;;;10.60;48.50;;;;;;4970760;28;20369;-86
2021/04/12 15:07:20;;;;;;;;;;;10.40;48.70;;;;;;4962810;28;19910;-86
2021/04/12 15:09:50;;;;;;;;;;;10.20;49.40;;;;;;4968859;28;20371;-86
2021/04/12 15:12:18;;;;;;;;;;;9.70;50.70;;;;;;4968603;28;19920;-87
2021/04/12 15:14:47;;;;;;;;;;;9.60;51.90;;;;;;4963790;28;20059;-88
2021/04/12 15:17:19;;;;;;;;;;;9.30;53.20;;;;;;4965458;28;19918;-86